Airport View

Enter AWOS ICAO identifier for current METAR.

ex. KFNL

KDMW 262305Z AUTO 28008KT 10SM OVC060 05/M01 A2985 RMK AO2

26 Jan 2020 23:26

Frequency: 121.25

Phone: 410-876-1281

Other Area AWOS: KTHV - KFDK - KDMH - KGAI

KBWI 262057Z 2621/2724 28010KT P6SM BKN060 FM270100 28006KT P6SM SCT045 FM270600 28010KT P6SM BKN040